Time;durP1;ratioP1;P1;durP2;ratioP2;P2;SDS_P1;SDS_P2;PMS_P1;PMS_P2;Temp;Humidity;BMP_temperature;BMP_pressure;BME280_temperature;BME280_humidity;BME280_pressure;Samples;Min_cycle;Max_cycle;Signal;HPM_P1;HPM_P2
2022/11/15 00:01:02;;;;;;;25.27;16.38;;;;;;;;;;5052054;28;20112;-67
2022/11/15 00:03:28;;;;;;;23.00;15.73;;;;;;;;;;5051607;28;20028;-65
2022/11/15 00:05:55;;;;;;;22.90;16.40;;;;;;;;;;5052063;28;20074;-66
2022/11/15 00:08:21;;;;;;;23.70;17.05;;;;;;;;;;5034116;28;20056;-65
2022/11/15 00:10:57;;;;;;;25.38;17.50;;;;;;;;;;5034003;28;20037;-66
2022/11/15 00:13:23;;;;;;;23.85;17.00;;;;;;;;;;5051328;28;20025;-67
2022/11/15 00:15:49;;;;;;;22.10;16.02;;;;;;;;;;5034201;28;20024;-67
2022/11/15 00:18:15;;;;;;;25.27;15.93;;;;;;;;;;5052227;28;20021;-66
2022/11/15 00:20:42;;;;;;;24.00;15.35;;;;;;;;;;5051672;28;20040;-63
2022/11/15 00:23:08;;;;;;;22.38;16.20;;;;;;;;;;5051228;28;20032;-65
2022/11/15 00:25:34;;;;;;;24.23;16.02;;;;;;;;;;5033566;28;20025;-63
2022/11/15 00:28:01;;;;;;;23.75;15.85;;;;;;;;;;5033801;28;20087;-66
2022/11/15 00:30:27;;;;;;;23.73;15.93;;;;;;;;;;5051516;28;20029;-65
2022/11/15 00:32:53;;;;;;;22.38;16.10;;;;;;;;;;5033629;28;20620;-65
2022/11/15 00:35:19;;;;;;;24.20;16.70;;;;;;;;;;5050699;28;20017;-65
2022/11/15 00:37:47;;;;;;;23.65;16.52;;;;;;;;;;5033666;28;20085;-65
2022/11/15 00:40:13;;;;;;;22.63;16.25;;;;;;;;;;5051170;28;20070;-65
2022/11/15 00:42:39;;;;;;;24.40;15.90;;;;;;;;;;5051091;28;20021;-65
2022/11/15 00:45:05;;;;;;;23.83;16.50;;;;;;;;;;5050622;28;20033;-64
2022/11/15 00:47:31;;;;;;;22.98;16.13;;;;;;;;;;5051011;28;20029;-65
2022/11/15 00:49:57;;;;;;;25.30;16.45;;;;;;;;;;5033684;28;20029;-64
2022/11/15 00:52:23;;;;;;;26.90;16.42;;;;;;;;;;5051633;28;20021;-65
2022/11/15 00:54:49;;;;;;;24.55;16.80;;;;;;;;;;5050836;28;20032;-65
2022/11/15 00:57:15;;;;;;;26.98;18.15;;;;;;;;;;5033978;28;20032;-66
2022/11/15 00:59:41;;;;;;;23.80;17.00;;;;;;;;;;5051489;28;20029;-66
2022/11/15 01:02:07;;;;;;;23.27;16.75;;;;;;;;;;5051674;28;20030;-66
2022/11/15 01:04:33;;;;;;;24.23;16.83;;;;;;;;;;5050861;28;20025;-66
2022/11/15 01:06:59;;;;;;;22.70;15.80;;;;;;;;;;5050400;28;20029;-65
2022/11/15 01:09:25;;;;;;;22.92;15.80;;;;;;;;;;5050937;28;20029;-65
2022/11/15 01:11:51;;;;;;;23.08;16.63;;;;;;;;;;5050700;28;20048;-66
2022/11/15 01:14:17;;;;;;;23.75;16.80;;;;;;;;;;5050004;28;20025;-67
2022/11/15 01:16:43;;;;;;;22.50;16.08;;;;;;;;;;5050845;28;20477;-67
2022/11/15 01:19:09;;;;;;;22.98;15.68;;;;;;;;;;5032819;28;20132;-65
2022/11/15 01:21:35;;;;;;;22.27;15.82;;;;;;;;;;5032780;28;20073;-65
2022/11/15 01:24:01;;;;;;;21.42;15.50;;;;;;;;;;5049825;28;20029;-65
2022/11/15 01:26:27;;;;;;;22.63;14.88;;;;;;;;;;5050387;28;20405;-65
2022/11/15 01:28:53;;;;;;;23.60;16.08;;;;;;;;;;5050832;28;20029;-67
2022/11/15 01:31:20;;;;;;;22.45;15.45;;;;;;;;;;5032824;28;20078;-66
2022/11/15 01:33:47;;;;;;;21.45;14.98;;;;;;;;;;5049989;28;20053;-65
2022/11/15 01:36:17;;;;;;;23.98;15.70;;;;;;;;;;5032758;28;20036;-64
2022/11/15 01:38:43;;;;;;;23.10;14.85;;;;;;;;;;5050687;28;20033;-63
2022/11/15 01:41:17;;;;;;;26.17;15.75;;;;;;;;;;5050401;28;20067;-65
2022/11/15 01:43:43;;;;;;;22.42;15.77;;;;;;;;;;5049893;28;20032;-62
2022/11/15 01:46:14;;;;;;;22.15;14.57;;;;;;;;;;5050479;28;20032;-65
2022/11/15 01:48:40;;;;;;;21.95;14.77;;;;;;;;;;5050319;28;20025;-64
2022/11/15 01:51:10;;;;;;;23.30;14.95;;;;;;;;;;5050110;28;20396;-65
2022/11/15 01:53:37;;;;;;;22.95;15.73;;;;;;;;;;5049852;28;20048;-64
2022/11/15 01:56:06;;;;;;;24.02;14.95;;;;;;;;;;5032387;28;20025;-64
2022/11/15 01:58:32;;;;;;;;;;;;;;;;;;5050647;28;20044;-64
2022/11/15 02:00:58;;;;;;;21.70;15.07;;;;;;;;;;5050109;28;19904;-64
2022/11/15 02:03:27;;;;;;;20.40;14.15;;;;;;;;;;5049676;28;20524;-63
2022/11/15 02:05:53;;;;;;;24.27;14.88;;;;;;;;;;5053745;28;20021;-64
2022/11/15 02:08:19;;;;;;;24.33;15.15;;;;;;;;;;5054101;28;20029;-63
2022/11/15 02:10:46;;;;;;;21.70;16.02;;;;;;;;;;5036093;28;20021;-65
2022/11/15 02:13:13;;;;;;;23.77;15.63;;;;;;;;;;5035246;28;20044;-63
2022/11/15 02:15:44;;;;;;;22.27;15.80;;;;;;;;;;5054035;28;20099;-65
2022/11/15 02:18:23;;;;;;;22.80;14.70;;;;;;;;;;5054175;28;20033;-64
2022/11/15 02:20:52;;;;;;;21.52;14.10;;;;;;;;;;5054862;28;20029;-63
2022/11/15 02:23:17;;;;;;;23.08;15.23;;;;;;;;;;5036335;28;20024;-62
2022/11/15 02:25:47;;;;;;;22.65;15.20;;;;;;;;;;5037037;28;20033;-63
2022/11/15 02:28:31;;;;;;;21.83;15.35;;;;;;;;;;5054959;28;20025;-63
2022/11/15 02:30:57;;;;;;;23.42;15.30;;;;;;;;;;5054416;28;20421;-64
2022/11/15 02:33:26;;;;;;;23.55;16.23;;;;;;;;;;5053066;28;20021;-64
2022/11/15 02:36:01;;;;;;;23.92;15.75;;;;;;;;;;5035400;28;20097;-63
2022/11/15 02:38:30;;;;;;;22.73;15.65;;;;;;;;;;5035669;28;20013;-65
2022/11/15 02:41:03;;;;;;;22.63;15.50;;;;;;;;;;5053488;28;20029;-65
2022/11/15 02:43:59;;;;;;;25.38;15.77;;;;;;;;;;5052744;28;20032;-64
2022/11/15 02:47:40;;;;;;;20.88;15.55;;;;;;;;;;5035436;28;20051;-65
2022/11/15 02:49:35;;;;;;;21.48;14.80;;;;;;;;;;5039900;28;20029;-64
2022/11/15 02:52:01;;;;;;;21.52;15.70;;;;;;;;;;5035403;28;20509;-65
2022/11/15 02:54:32;;;;;;;24.40;16.08;;;;;;;;;;5034678;28;20029;-65
2022/11/15 02:57:17;;;;;;;21.40;15.48;;;;;;;;;;5053112;28;20017;-64
2022/11/15 02:59:49;;;;;;;22.38;15.38;;;;;;;;;;5053218;28;20025;-65
2022/11/15 03:02:15;;;;;;;20.25;15.05;;;;;;;;;;5053131;28;20033;-64
2022/11/15 03:04:50;;;;;;;22.75;15.93;;;;;;;;;;5052451;28;20350;-64
2022/11/15 03:07:21;;;;;;;21.27;15.48;;;;;;;;;;5053057;28;20033;-64
2022/11/15 03:09:47;;;;;;;35.95;15.48;;;;;;;;;;5053065;28;20063;-65
2022/11/15 03:12:30;;;;;;;22.13;15.70;;;;;;;;;;5052980;28;20033;-64
2022/11/15 03:15:05;;;;;;;21.85;14.40;;;;;;;;;;5052309;28;20101;-65
2022/11/15 03:17:49;;;;;;;22.40;14.52;;;;;;;;;;5052345;28;20033;-64
2022/11/15 03:20:17;;;;;;;21.48;14.07;;;;;;;;;;5052956;28;20120;-66
2022/11/15 03:22:44;;;;;;;23.30;16.73;;;;;;;;;;5053006;28;20024;-65
2022/11/15 03:25:13;;;;;;;23.25;16.13;;;;;;;;;;5052114;28;20040;-66
2022/11/15 03:27:41;;;;;;;21.67;15.13;;;;;;;;;;5035099;28;20359;-66
2022/11/15 03:30:08;;;;;;;24.35;15.30;;;;;;;;;;5052858;28;20021;-67
2022/11/15 03:32:40;;;;;;;22.75;16.42;;;;;;;;;;5052792;28;20048;-67
2022/11/15 03:35:10;;;;;;;22.08;16.10;;;;;;;;;;5051841;28;20017;-66
2022/11/15 03:38:00;;;;;;;22.55;15.60;;;;;;;;;;5052861;28;20036;-64
2022/11/15 03:40:30;;;;;;;22.20;15.75;;;;;;;;;;5052557;28;20029;-65
2022/11/15 03:43:08;;;;;;;23.65;16.80;;;;;;;;;;5052451;28;20036;-68
2022/11/15 03:45:34;;;;;;;;;;;;;;;;;;5053085;28;20035;-64
2022/11/15 03:48:03;;;;;;;21.55;14.98;;;;;;;;;;5052324;28;19908;-65
2022/11/15 03:50:29;;;;;;;24.83;16.27;;;;;;;;;;5034509;28;20050;-65
2022/11/15 03:52:56;;;;;;;23.65;16.30;;;;;;;;;;5052272;28;20096;-65
2022/11/15 03:55:22;;;;;;;21.15;14.95;;;;;;;;;;5051512;28;20025;-67
2022/11/15 03:57:49;;;;;;;25.05;16.88;;;;;;;;;;5052283;28;20027;-67
2022/11/15 04:00:16;;;;;;;21.30;15.98;;;;;;;;;;5034205;28;20071;-65
2022/11/15 04:02:42;;;;;;;22.85;15.80;;;;;;;;;;5052385;28;20427;-65
2022/11/15 04:05:08;;;;;;;23.15;15.60;;;;;;;;;;5051198;28;20074;-64
2022/11/15 04:07:34;;;;;;;21.60;15.57;;;;;;;;;;5052066;28;20071;-66
2022/11/15 04:10:03;;;;;;;24.02;16.20;;;;;;;;;;5051764;28;20025;-64
2022/11/15 04:12:33;;;;;;;21.85;15.70;;;;;;;;;;5051770;28;20025;-64
2022/11/15 04:15:08;;;;;;;22.30;15.90;;;;;;;;;;5051141;28;20116;-65
2022/11/15 04:17:44;;;;;;;21.30;14.52;;;;;;;;;;5033975;28;20100;-64
2022/11/15 04:25:43;;;;;;;23.88;16.33;;;;;;;;;;5058852;28;20108;-65
2022/11/15 04:28:09;;;;;;;22.13;14.93;;;;;;;;;;5070904;28;20033;-66
2022/11/15 04:30:35;;;;;;;23.98;15.98;;;;;;;;;;5071304;28;20025;-64
2022/11/15 04:33:01;;;;;;;22.30;15.20;;;;;;;;;;5053372;28;20028;-65
2022/11/15 04:35:27;;;;;;;21.92;15.65;;;;;;;;;;5071481;28;20047;-64
2022/11/15 04:37:53;;;;;;;24.08;16.17;;;;;;;;;;5071450;28;20055;-65
2022/11/15 04:40:19;;;;;;;23.95;15.63;;;;;;;;;;5071248;28;20021;-66
2022/11/15 04:42:45;;;;;;;22.73;16.20;;;;;;;;;;5053289;28;20024;-64
2022/11/15 04:45:11;;;;;;;21.63;15.02;;;;;;;;;;5070295;28;20017;-64
2022/11/15 04:47:37;;;;;;;22.83;16.15;;;;;;;;;;5071446;28;20036;-64
2022/11/15 04:50:03;;;;;;;21.85;14.88;;;;;;;;;;5071180;28;20020;-64
2022/11/15 04:52:29;;;;;;;21.95;15.18;;;;;;;;;;5070985;28;20032;-63
2022/11/15 04:54:55;;;;;;;21.80;14.85;;;;;;;;;;5070256;28;20017;-63
2022/11/15 04:57:21;;;;;;;22.52;15.73;;;;;;;;;;5071315;28;20039;-64
2022/11/15 04:59:47;;;;;;;23.52;16.40;;;;;;;;;;5071336;28;20102;-64
2022/11/15 05:02:13;;;;;;;23.65;15.63;;;;;;;;;;5070981;28;20107;-64
2022/11/15 05:04:39;;;;;;;23.17;15.93;;;;;;;;;;5070246;28;20033;-64
2022/11/15 05:07:05;;;;;;;20.58;15.18;;;;;;;;;;5053032;28;20523;-63
2022/11/15 05:09:31;;;;;;;20.35;14.23;;;;;;;;;;5052943;28;20024;-64
2022/11/15 05:11:57;;;;;;;22.48;15.45;;;;;;;;;;5071019;28;20096;-65
2022/11/15 05:14:23;;;;;;;22.50;15.40;;;;;;;;;;5070313;28;20025;-64
2022/11/15 05:16:49;;;;;;;20.55;15.55;;;;;;;;;;5070783;28;20048;-65
2022/11/15 05:19:15;;;;;;;22.00;15.55;;;;;;;;;;5033577;28;20024;-66
2022/11/15 05:21:41;;;;;;;22.67;15.90;;;;;;;;;;5050620;28;20173;-65
2022/11/15 05:24:07;;;;;;;22.45;15.07;;;;;;;;;;5050054;28;20025;-66
2022/11/15 05:26:33;;;;;;;22.10;14.82;;;;;;;;;;5083002;22;20040;-62
2022/11/15 05:28:59;;;;;;;21.08;14.88;;;;;;;;;;5052135;28;20025;-63
2022/11/15 05:31:26;;;;;;;20.02;14.63;;;;;;;;;;5034771;28;20036;-64
2022/11/15 05:33:53;;;;;;;20.63;14.75;;;;;;;;;;5051646;28;20025;-62
2022/11/15 05:36:22;;;;;;;21.75;15.88;;;;;;;;;;5053009;28;20033;-64
2022/11/15 05:38:49;;;;;;;20.27;14.88;;;;;;;;;;5054060;28;20021;-63
2022/11/15 05:41:16;;;;;;;21.67;14.93;;;;;;;;;;5041729;28;20071;-63
2022/11/15 05:43:42;;;;;;;26.65;16.73;;;;;;;;;;5058456;28;20025;-63
2022/11/15 05:46:09;;;;;;;28.35;17.33;;;;;;;;;;5059239;28;20049;-63
2022/11/15 05:48:36;;;;;;;23.73;16.73;;;;;;;;;;5042026;28;20075;-63
2022/11/15 05:51:03;;;;;;;22.42;15.27;;;;;;;;;;5042139;28;20028;-63
2022/11/15 05:53:30;;;;;;;22.08;15.98;;;;;;;;;;5025037;28;20025;-63
2022/11/15 05:55:56;;;;;;;21.42;15.45;;;;;;;;;;5021465;28;20116;-64
2022/11/15 05:58:22;;;;;;;23.02;15.32;;;;;;;;;;5038869;28;20087;-63
2022/11/15 06:00:48;;;;;;;23.58;16.08;;;;;;;;;;5038736;28;20037;-63
2022/11/15 06:03:14;;;;;;;20.85;15.23;;;;;;;;;;5038240;28;20537;-62
2022/11/15 06:05:40;;;;;;;22.52;16.10;;;;;;;;;;5021153;28;20056;-64
2022/11/15 06:08:06;;;;;;;23.15;15.73;;;;;;;;;;5038096;28;20025;-65
2022/11/15 06:10:33;;;;;;;24.35;16.38;;;;;;;;;;5038401;28;20112;-64
2022/11/15 06:12:59;;;;;;;22.13;16.02;;;;;;;;;;5020674;28;20122;-63
2022/11/15 06:15:26;;;;;;;23.63;16.15;;;;;;;;;;5037996;28;20422;-64
2022/11/15 06:17:52;;;;;;;22.23;16.05;;;;;;;;;;5020839;28;20070;-64
2022/11/15 06:20:18;;;;;;;22.52;16.23;;;;;;;;;;5038182;28;20136;-63
2022/11/15 06:22:44;;;;;;;22.25;15.05;;;;;;;;;;5038060;28;20029;-64
2022/11/15 06:25:10;;;;;;;21.98;16.25;;;;;;;;;;5037837;28;20108;-63
2022/11/15 06:27:36;;;;;;;23.10;15.57;;;;;;;;;;5039756;28;20541;-65
2022/11/15 06:30:02;;;;;;;22.17;15.05;;;;;;;;;;5038133;28;20064;-65
2022/11/15 06:32:30;;;;;;;24.35;15.55;;;;;;;;;;5038026;28;20110;-63
2022/11/15 06:34:56;;;;;;;21.90;15.98;;;;;;;;;;5036081;28;20033;-64
2022/11/15 06:37:22;;;;;;;21.35;16.52;;;;;;;;;;5036703;28;20327;-64
2022/11/15 06:39:48;;;;;;;24.52;15.05;;;;;;;;;;5038306;28;20025;-65
2022/11/15 06:42:14;;;;;;;21.70;15.95;;;;;;;;;;5037011;28;20608;-65
2022/11/15 06:44:40;;;;;;;21.88;15.23;;;;;;;;;;5036063;28;20144;-62
2022/11/15 06:47:06;;;;;;;21.10;15.50;;;;;;;;;;5038234;28;20105;-61
2022/11/15 06:49:32;;;;;;;24.05;15.57;;;;;;;;;;5036379;28;20021;-63
2022/11/15 06:51:58;;;;;;;21.60;15.93;;;;;;;;;;5034524;28;20033;-63
2022/11/15 06:54:24;;;;;;;22.52;15.27;;;;;;;;;;5050182;28;20044;-58
2022/11/15 06:56:50;;;;;;;23.92;16.25;;;;;;;;;;5054452;28;20068;-62
2022/11/15 06:59:16;;;;;;;22.70;14.95;;;;;;;;;;5055011;28;20481;-60
2022/11/15 07:01:42;;;;;;;22.40;14.80;;;;;;;;;;5053733;28;20163;-64
2022/11/15 07:04:08;;;;;;;22.83;15.57;;;;;;;;;;5035847;28;20036;-61
2022/11/15 07:06:34;;;;;;;22.30;14.80;;;;;;;;;;5054295;28;20493;-64
2022/11/15 07:09:00;;;;;;;21.90;15.25;;;;;;;;;;5036686;28;20032;-62
2022/11/15 07:11:26;;;;;;;21.50;15.18;;;;;;;;;;5054589;28;20381;-64
2022/11/15 07:13:52;;;;;;;22.42;14.63;;;;;;;;;;5035366;28;20021;-63
2022/11/15 07:16:17;;;;;;;23.00;15.05;;;;;;;;;;5054160;28;20402;-58
2022/11/15 07:18:43;;;;;;;19.70;14.43;;;;;;;;;;5054901;28;20025;-63
2022/11/15 07:21:12;;;;;;;23.02;14.32;;;;;;;;;;5032738;28;20489;-61
2022/11/15 07:23:40;;;;;;;20.08;13.90;;;;;;;;;;5033131;28;20494;-61
2022/11/15 07:26:07;;;;;;;22.10;15.20;;;;;;;;;;5034573;28;20037;-64
2022/11/15 07:28:33;;;;;;;20.98;14.75;;;;;;;;;;5034240;28;20025;-63
2022/11/15 07:31:02;;;;;;;20.90;14.02;;;;;;;;;;5034047;28;20034;-63
2022/11/15 07:33:28;;;;;;;22.42;14.15;;;;;;;;;;5032041;28;20025;-63
2022/11/15 07:35:54;;;;;;;21.05;13.90;;;;;;;;;;5032338;28;20037;-62
2022/11/15 07:38:20;;;;;;;20.98;13.95;;;;;;;;;;5034234;28;20079;-61
2022/11/15 07:40:46;;;;;;;19.40;12.82;;;;;;;;;;5034227;28;20451;-64
2022/11/15 07:43:12;;;;;;;21.85;13.20;;;;;;;;;;5032813;28;20445;-59
2022/11/15 07:45:43;;;;;;;18.80;13.18;;;;;;;;;;5032989;28;20022;-62
2022/11/15 07:48:08;;;;;;;19.70;13.18;;;;;;;;;;5032922;28;20034;-63
2022/11/15 07:50:34;;;;;;;18.73;12.35;;;;;;;;;;5033849;28;20093;-64
2022/11/15 07:53:00;;;;;;;20.38;13.52;;;;;;;;;;5033085;28;20101;-65
2022/11/15 07:55:30;;;;;;;21.20;14.02;;;;;;;;;;5032215;28;20029;-67
2022/11/15 07:58:03;;;;;;;19.95;13.02;;;;;;;;;;5034903;28;20485;-69
2022/11/15 08:00:29;;;;;;;20.13;13.02;;;;;;;;;;5035185;28;20071;-70
2022/11/15 08:09:02;;;;;;;21.40;12.98;;;;;;;;;;5035704;28;20071;-70
2022/11/15 08:11:28;;;;;;;18.58;12.73;;;;;;;;;;5035261;28;20057;-70
2022/11/15 08:13:54;;;;;;;20.17;12.23;;;;;;;;;;5032992;28;20025;-69
2022/11/15 08:16:20;;;;;;;18.85;11.80;;;;;;;;;;5035012;28;20041;-70
2022/11/15 08:18:47;;;;;;;19.58;12.18;;;;;;;;;;5035092;28;20049;-69
2022/11/15 08:21:15;;;;;;;17.13;11.60;;;;;;;;;;5034989;28;20132;-70
2022/11/15 08:23:41;;;;;;;17.42;11.18;;;;;;;;;;5034494;28;20064;-70
2022/11/15 08:26:07;;;;;;;19.45;11.40;;;;;;;;;;5034811;28;20033;-68
2022/11/15 08:28:33;;;;;;;18.77;12.50;;;;;;;;;;5034517;28;20029;-68
2022/11/15 08:30:59;;;;;;;17.40;11.15;;;;;;;;;;5034589;28;20515;-68
2022/11/15 08:33:25;;;;;;;16.60;10.40;;;;;;;;;;5033583;28;20025;-67
2022/11/15 08:35:51;;;;;;;17.85;11.02;;;;;;;;;;5033376;28;20025;-65
2022/11/15 08:38:17;;;;;;;16.92;9.82;;;;;;;;;;5015064;28;20056;-65
2022/11/15 08:40:43;;;;;;;16.85;9.35;;;;;;;;;;5032601;28;20033;-63
2022/11/15 08:43:09;;;;;;;16.48;9.82;;;;;;;;;;5030027;28;20021;-65
2022/11/15 08:45:35;;;;;;;17.00;10.07;;;;;;;;;;5030953;28;20425;-65
2022/11/15 08:48:02;;;;;;;17.45;10.77;;;;;;;;;;5013543;28;20037;-61
2022/11/15 08:50:28;;;;;;;17.05;10.30;;;;;;;;;;5031156;28;20031;-64
2022/11/15 08:52:54;;;;;;;16.40;9.75;;;;;;;;;;5032285;28;20389;-64
2022/11/15 08:55:20;;;;;;;16.23;9.85;;;;;;;;;;5033033;28;20100;-65
2022/11/15 08:57:46;;;;;;;16.88;9.68;;;;;;;;;;5014522;28;20029;-63
2022/11/15 09:00:13;;;;;;;16.33;9.45;;;;;;;;;;5032527;28;20531;-65
2022/11/15 09:02:41;;;;;;;17.02;9.90;;;;;;;;;;5032250;28;20026;-65
2022/11/15 09:05:08;;;;;;;15.27;9.70;;;;;;;;;;5031569;28;20028;-65
2022/11/15 09:07:34;;;;;;;17.45;9.90;;;;;;;;;;5014871;28;20029;-64
2022/11/15 09:10:00;;;;;;;16.95;10.45;;;;;;;;;;5032464;28;20037;-65
2022/11/15 09:12:26;;;;;;;16.40;9.23;;;;;;;;;;5032011;28;20029;-64
2022/11/15 09:14:52;;;;;;;15.77;9.18;;;;;;;;;;5030589;28;20025;-63
2022/11/15 09:17:18;;;;;;;15.60;9.30;;;;;;;;;;5032198;28;20021;-65
2022/11/15 09:19:44;;;;;;;15.32;8.57;;;;;;;;;;5032255;28;20029;-65
2022/11/15 09:22:10;;;;;;;18.35;10.00;;;;;;;;;;5031012;28;20030;-67
2022/11/15 09:24:36;;;;;;;16.02;9.00;;;;;;;;;;5031377;28;20434;-65
2022/11/15 09:27:02;;;;;;;16.05;9.07;;;;;;;;;;5031614;28;20047;-64
2022/11/15 09:29:28;;;;;;;14.98;9.10;;;;;;;;;;5032046;28;20029;-66
2022/11/15 09:31:54;;;;;;;15.52;9.30;;;;;;;;;;5031933;28;20022;-65
2022/11/15 09:34:20;;;;;;;16.40;9.45;;;;;;;;;;5031438;28;20417;-65
2022/11/15 09:36:46;;;;;;;14.63;8.98;;;;;;;;;;5030606;28;20029;-65
2022/11/15 09:39:12;;;;;;;15.48;8.90;;;;;;;;;;5032098;28;20028;-65
2022/11/15 09:41:57;;;;;;;17.30;9.70;;;;;;;;;;5032020;28;20389;-65
2022/11/15 09:44:23;;;;;;;15.85;8.85;;;;;;;;;;5031070;28;20018;-65
2022/11/15 09:46:52;;;;;;;15.50;10.25;;;;;;;;;;5031956;28;20026;-65
2022/11/15 09:49:19;;;;;;;15.68;9.43;;;;;;;;;;5031799;28;20038;-65
2022/11/15 09:51:46;;;;;;;16.55;9.48;;;;;;;;;;5030529;28;20021;-65
2022/11/15 09:54:30;;;;;;;15.35;9.45;;;;;;;;;;5029707;28;20441;-66
2022/11/15 09:57:18;;;;;;;14.43;8.95;;;;;;;;;;5031879;28;20030;-65
2022/11/15 09:59:53;;;;;;;17.05;9.75;;;;;;;;;;5030798;28;20021;-63
2022/11/15 10:02:38;;;;;;;16.10;9.52;;;;;;;;;;5031899;28;20087;-64
2022/11/15 10:05:04;;;;;;;14.18;8.85;;;;;;;;;;5031109;28;20029;-65
2022/11/15 10:07:42;;;;;;;17.27;9.63;;;;;;;;;;5031780;28;20474;-65
2022/11/15 10:10:20;;;;;;;14.40;9.13;;;;;;;;;;5030650;28;20071;-66
2022/11/15 10:12:48;;;;;;;14.85;8.80;;;;;;;;;;5031544;28;20128;-65
2022/11/15 10:15:15;;;;;;;15.38;9.18;;;;;;;;;;5031447;28;20021;-65
2022/11/15 10:17:41;;;;;;;16.35;9.55;;;;;;;;;;5030461;28;20025;-65
2022/11/15 10:20:15;;;;;;;14.73;9.27;;;;;;;;;;5035510;28;20032;-64
2022/11/15 10:22:49;;;;;;;14.82;9.07;;;;;;;;;;5033653;28;20025;-65
2022/11/15 10:25:22;;;;;;;15.27;9.63;;;;;;;;;;5052011;28;20045;-64
2022/11/15 10:28:07;;;;;;;16.15;9.23;;;;;;;;;;5020100;28;20110;-65
2022/11/15 10:30:35;;;;;;;14.55;9.00;;;;;;;;;;5035462;28;20029;-65
2022/11/15 10:33:10;;;;;;;15.00;9.20;;;;;;;;;;5035050;28;20033;-63
2022/11/15 10:35:36;;;;;;;15.68;9.30;;;;;;;;;;5035882;28;20018;-65
2022/11/15 10:38:10;;;;;;;14.45;9.43;;;;;;;;;;5035620;28;20030;-65
2022/11/15 10:40:37;;;;;;;14.98;10.10;;;;;;;;;;5017952;28;20358;-64
2022/11/15 10:43:19;;;;;;;15.82;10.50;;;;;;;;;;5035360;28;20021;-64
2022/11/15 10:45:45;;;;;;;17.00;9.90;;;;;;;;;;5017796;28;20021;-65
2022/11/15 10:48:14;;;;;;;15.38;10.43;;;;;;;;;;5017687;28;20067;-64
2022/11/15 10:50:40;;;;;;;17.98;10.60;;;;;;;;;;5022060;28;20113;-64
2022/11/15 10:53:32;;;;;;;17.80;10.85;;;;;;;;;;5054070;28;20184;-64
2022/11/15 10:56:01;;;;;;;15.35;10.80;;;;;;;;;;5033418;28;20033;-67
2022/11/15 10:58:38;;;;;;;15.20;10.32;;;;;;;;;;5037280;28;20025;-65
2022/11/15 11:01:12;;;;;;;16.05;10.80;;;;;;;;;;5037387;28;20120;-65
2022/11/15 11:10:23;;;;;;;14.73;10.80;;;;;;;;;;5034708;28;20666;-66
2022/11/15 11:12:48;;;;;;;17.17;11.07;;;;;;;;;;5034171;28;20173;-65
2022/11/15 11:15:16;;;;;;;15.10;11.30;;;;;;;;;;5016622;28;20025;-65
2022/11/15 11:17:54;;;;;;;17.50;11.27;;;;;;;;;;5034958;28;20021;-65
2022/11/15 11:20:31;;;;;;;16.02;11.25;;;;;;;;;;5040522;28;20082;-64
2022/11/15 11:23:15;;;;;;;17.58;11.27;;;;;;;;;;5055773;28;20036;-65
2022/11/15 11:26:07;;;;;;;15.23;11.35;;;;;;;;;;5054627;28;20095;-66
2022/11/15 11:28:39;;;;;;;18.23;12.00;;;;;;;;;;5029930;28;20127;-66
2022/11/15 11:31:24;;;;;;;16.05;11.95;;;;;;;;;;5055830;28;20025;-64
2022/11/15 11:33:56;;;;;;;16.10;11.88;;;;;;;;;;5041038;28;20076;-65
2022/11/15 11:36:22;;;;;;;15.73;11.38;;;;;;;;;;5015854;28;20022;-65
2022/11/15 11:38:54;;;;;;;15.85;11.13;;;;;;;;;;5033808;28;20021;-65
2022/11/15 11:41:23;;;;;;;15.70;11.70;;;;;;;;;;5016212;28;20033;-65
2022/11/15 11:44:08;;;;;;;17.23;12.38;;;;;;;;;;5033500;28;20033;-65
2022/11/15 11:46:54;;;;;;;17.30;11.80;;;;;;;;;;5033615;28;20037;-65
2022/11/15 11:49:23;;;;;;;15.13;10.90;;;;;;;;;;5033764;28;20029;-65
2022/11/15 11:52:06;;;;;;;15.68;12.00;;;;;;;;;;5036603;28;20455;-65
2022/11/15 11:54:38;;;;;;;16.00;11.43;;;;;;;;;;5033050;28;20116;-64
2022/11/15 11:57:06;;;;;;;15.80;11.50;;;;;;;;;;5033802;28;20028;-66
2022/11/15 11:59:32;;;;;;;16.77;11.15;;;;;;;;;;5033641;28;20854;-63
2022/11/15 12:02:02;;;;;;;16.45;11.55;;;;;;;;;;5015886;28;20057;-65
2022/11/15 12:04:30;;;;;;;15.20;10.95;;;;;;;;;;5032529;28;20029;-65
2022/11/15 12:06:56;;;;;;;16.10;11.07;;;;;;;;;;5015479;28;20029;-63
2022/11/15 12:09:34;;;;;;;15.05;11.05;;;;;;;;;;5033380;28;20547;-65
2022/11/15 12:12:08;;;;;;;19.63;11.27;;;;;;;;;;5015636;28;20064;-63
2022/11/15 12:14:46;;;;;;;17.08;11.45;;;;;;;;;;5014948;28;20026;-65
2022/11/15 12:17:12;;;;;;;15.35;11.25;;;;;;;;;;5033563;28;20046;-63
2022/11/15 12:19:39;;;;;;;15.75;11.60;;;;;;;;;;5033478;28;20084;-65
2022/11/15 12:22:11;;;;;;;16.60;11.10;;;;;;;;;;5033464;28;20029;-63
2022/11/15 12:24:42;;;;;;;16.58;11.90;;;;;;;;;;5032759;28;20034;-66
2022/11/15 12:27:08;;;;;;;15.10;11.07;;;;;;;;;;5033111;28;20036;-67
2022/11/15 12:29:34;;;;;;;16.17;11.40;;;;;;;;;;5033195;28;20040;-63
2022/11/15 12:32:00;;;;;;;15.15;11.23;;;;;;;;;;5032756;28;20474;-64
2022/11/15 12:34:29;;;;;;;14.98;11.07;;;;;;;;;;5032669;28;20069;-64
2022/11/15 12:36:56;;;;;;;16.17;10.93;;;;;;;;;;5031689;28;20029;-64
2022/11/15 12:39:41;;;;;;;16.73;11.68;;;;;;;;;;5033568;28;20025;-66
2022/11/15 12:42:07;;;;;;;15.40;11.40;;;;;;;;;;5047814;28;20033;-64
2022/11/15 12:44:35;;;;;;;14.82;10.98;;;;;;;;;;5052946;28;20053;-66
2022/11/15 12:47:03;;;;;;;15.15;11.35;;;;;;;;;;5051918;28;20037;-66
2022/11/15 12:49:29;;;;;;;15.77;11.10;;;;;;;;;;5035326;28;20033;-66
2022/11/15 12:51:58;;;;;;;15.07;11.25;;;;;;;;;;5035797;28;20099;-64
2022/11/15 12:54:24;;;;;;;15.18;11.15;;;;;;;;;;5052726;28;20093;-65
2022/11/15 12:57:08;;;;;;;15.20;11.02;;;;;;;;;;5035498;28;20435;-64
2022/11/15 12:59:50;;;;;;;15.68;11.00;;;;;;;;;;5035000;28;20033;-64
2022/11/15 13:02:28;;;;;;;16.50;11.30;;;;;;;;;;5052137;28;20093;-65
2022/11/15 13:04:54;;;;;;;;;;;;;;;;;;4681449;28;10000080;-66
2022/11/15 13:07:55;;;;;;;15.73;11.13;;;;;;;;;;5029654;28;20652;-65
2022/11/15 13:10:29;;;;;;;16.40;11.32;;;;;;;;;;5012308;28;20036;-65
2022/11/15 13:12:55;;;;;;;16.67;11.18;;;;;;;;;;5026014;28;20064;-66
2022/11/15 13:15:21;;;;;;;15.13;11.38;;;;;;;;;;5028292;28;20021;-65
2022/11/15 13:17:54;;;;;;;15.10;11.10;;;;;;;;;;5011153;28;20044;-63
2022/11/15 13:20:21;;;;;;;15.70;11.35;;;;;;;;;;5028804;28;20029;-62
2022/11/15 13:22:58;;;;;;;15.82;11.60;;;;;;;;;;5013914;28;20865;-59
2022/11/15 13:25:39;;;;;;;18.42;11.93;;;;;;;;;;5030621;28;20536;-64
2022/11/15 13:28:11;;;;;;;16.05;11.57;;;;;;;;;;5028755;28;20426;-63
2022/11/15 13:30:38;;;;;;;15.80;10.90;;;;;;;;;;5028935;28;20030;-63
2022/11/15 13:33:11;;;;;;;15.98;11.40;;;;;;;;;;5029125;28;20025;-63
2022/11/15 13:35:40;;;;;;;15.05;11.55;;;;;;;;;;5028764;28;20037;-65
2022/11/15 13:38:06;;;;;;;15.32;11.40;;;;;;;;;;5010606;28;20029;-62
2022/11/15 13:40:36;;;;;;;15.63;11.65;;;;;;;;;;5028144;28;20029;-62
2022/11/15 13:43:21;;;;;;;14.68;10.95;;;;;;;;;;5010731;28;20160;-62
2022/11/15 13:46:07;;;;;;;16.48;11.77;;;;;;;;;;5028709;28;20025;-63
2022/11/15 13:48:33;;;;;;;16.55;11.40;;;;;;;;;;5028306;28;20420;-63
2022/11/15 13:51:00;;;;;;;16.40;11.10;;;;;;;;;;5010239;28;20032;-63
2022/11/15 13:53:26;;;;;;;15.60;10.80;;;;;;;;;;5027520;28;20112;-64
2022/11/15 13:55:53;;;;;;;17.80;11.02;;;;;;;;;;5010432;28;20100;-61
2022/11/15 13:58:19;;;;;;;15.55;11.60;;;;;;;;;;5028549;28;20044;-63
2022/11/15 14:00:46;;;;;;;16.80;11.60;;;;;;;;;;5030693;28;20025;-63
2022/11/15 14:03:14;;;;;;;15.93;11.90;;;;;;;;;;5030794;28;20116;-63
2022/11/15 14:05:40;;;;;;;16.73;12.07;;;;;;;;;;5031745;28;20053;-61
2022/11/15 14:08:22;;;;;;;15.55;11.05;;;;;;;;;;5032445;28;20044;-63
2022/11/15 14:10:48;;;;;;;15.20;10.70;;;;;;;;;;5031027;28;20631;-63
2022/11/15 14:13:31;;;;;;;15.45;11.07;;;;;;;;;;5032151;28;20636;-64
2022/11/15 14:16:16;;;;;;;15.40;11.30;;;;;;;;;;5034494;28;20029;-65
2022/11/15 14:18:49;;;;;;;16.48;11.55;;;;;;;;;;5034927;28;20036;-70
2022/11/15 14:21:15;;;;;;;15.90;11.80;;;;;;;;;;5030640;28;20040;-64
2022/11/15 14:23:42;;;;;;;15.35;11.10;;;;;;;;;;5036370;28;20037;-65
2022/11/15 14:26:25;;;;;;;17.42;11.80;;;;;;;;;;5054792;28;20029;-65
2022/11/15 14:28:51;;;;;;;17.67;12.15;;;;;;;;;;5054875;28;20109;-65
2022/11/15 14:31:17;;;;;;;16.08;11.23;;;;;;;;;;5055456;28;20036;-65
2022/11/15 14:33:44;;;;;;;17.17;11.50;;;;;;;;;;5054701;28;20022;-64
2022/11/15 14:36:14;;;;;;;15.95;11.50;;;;;;;;;;5037065;28;20025;-65
2022/11/15 14:38:42;;;;;;;16.02;11.20;;;;;;;;;;4674630;28;10000514;-65
2022/11/15 14:41:32;;;;;;;16.02;11.23;;;;;;;;;;5031851;28;20029;-65
2022/11/15 14:43:58;;;;;;;17.08;11.32;;;;;;;;;;5031036;28;20120;-63
2022/11/15 14:46:24;;;;;;;17.88;11.40;;;;;;;;;;5031400;28;20048;-65
2022/11/15 14:48:50;;;;;;;17.35;11.57;;;;;;;;;;5013881;28;20045;-63